Kerch, Ukraine
Current Conditions -  °F | °C
As of 10:00 AM on Saturday 25 Oct 2014 (Local Time) from URKA Reporting Station
Overcast Overcast  
Wind Chill: 20°   Ceiling: 1300
Heat Index: 32°   Visibility: 6mi
Dew Point: 30°   Wind: 20mph
Humidity: 93%   Direction: 70°ENE
Pressure: 30.21"   Gusts: 27mph
Location:  45.36°N, 36.48°E
Report Text: URKA 250700Z 07009G12MPS 9999 BKN013 OVC110 00/M01 Q1023 NOSIGRMK QFE763/1017 SC070
Loading
Personal Weather Stations






























Interactive Weather Map
Tropical Storm Tracking
New forecast layout! Learn more

10-Day Weather Forecast

Advertisements
Track Severe Weather on mobile